createdAt,value
2018-01-05T00:02:22.583Z,4.97
2018-01-05T00:04:50.445Z,5.30
2018-01-05T00:07:17.819Z,5.17
2018-01-05T00:09:45.142Z,4.27
2018-01-05T00:12:12.856Z,4.23
2018-01-05T00:14:40.487Z,4.70
2018-01-05T00:17:07.814Z,4.80
2018-01-05T00:19:35.284Z,5.33
2018-01-05T00:22:03.022Z,6.13
2018-01-05T00:24:30.338Z,5.50
2018-01-05T00:26:57.975Z,5.80
2018-01-05T00:29:25.346Z,6.40
2018-01-05T00:31:52.996Z,5.57
2018-01-05T00:34:20.314Z,5.27
2018-01-05T00:36:48.112Z,5.33
2018-01-05T00:39:15.447Z,5.70
2018-01-05T00:41:42.845Z,5.20
2018-01-05T00:44:10.503Z,5.90
2018-01-05T00:46:38.156Z,6.37
2018-01-05T00:49:05.622Z,5.70
2018-01-05T00:51:33.259Z,5.60
2018-01-05T00:54:00.634Z,6.93
2018-01-05T00:56:28.303Z,5.60
2018-01-05T00:58:55.977Z,5.77
2018-01-05T01:01:23.631Z,6.27
2018-01-05T01:03:51.383Z,8.20
2018-01-05T01:06:19.046Z,6.40
2018-01-05T01:08:46.682Z,5.80
2018-01-05T01:11:14.474Z,6.13
2018-01-05T01:13:42.238Z,6.23
2018-01-05T01:16:09.882Z,6.53
2018-01-05T01:18:37.217Z,6.07
2018-01-05T01:21:04.933Z,6.17
2018-01-05T01:23:32.566Z,5.53
2018-01-05T01:25:59.938Z,5.30
2018-01-05T01:28:27.262Z,5.77
2018-01-05T01:30:54.960Z,4.33
2018-01-05T01:33:22.614Z,4.70
2018-01-05T01:35:50.259Z,4.47
2018-01-05T01:38:17.598Z,4.77
2018-01-05T01:40:45.262Z,4.70
2018-01-05T01:43:12.962Z,5.10
2018-01-05T01:45:40.690Z,4.50
2018-01-05T01:48:08.362Z,3.60
2018-01-05T01:50:35.711Z,4.50
2018-01-05T01:53:03.050Z,4.57
2018-01-05T01:55:30.730Z,3.53
2018-01-05T01:57:58.047Z,3.77
2018-01-05T02:00:25.402Z,3.90
2018-01-05T02:02:53.114Z,3.93
2018-01-05T02:05:20.762Z,3.83
2018-01-05T02:07:48.122Z,4.53
2018-01-05T02:10:15.431Z,3.70
2018-01-05T02:12:42.782Z,3.83
2018-01-05T02:15:10.143Z,3.93
2018-01-05T02:17:37.454Z,4.50
2018-01-05T02:20:05.106Z,3.53
2018-01-05T02:22:32.458Z,4.07
2018-01-05T02:24:59.858Z,3.50
2018-01-05T02:27:27.166Z,4.00
2018-01-05T02:29:54.478Z,3.57
2018-01-05T02:32:21.822Z,3.60
2018-01-05T02:34:49.530Z,3.53
2018-01-05T02:37:16.854Z,2.40
2018-01-05T02:39:44.595Z,2.83
2018-01-05T02:42:12.263Z,2.60
2018-01-05T02:44:39.575Z,2.83
2018-01-05T02:47:07.339Z,3.37
2018-01-05T02:49:34.677Z,3.30
2018-01-05T02:52:01.974Z,2.37
2018-01-05T02:54:29.606Z,2.90
2018-01-05T02:56:56.951Z,3.07
2018-01-05T02:59:24.324Z,2.60
2018-01-05T03:01:51.963Z,2.40
2018-01-05T03:04:19.533Z,2.30
2018-01-05T03:06:46.877Z,2.57
2018-01-05T03:09:14.534Z,2.97
2018-01-05T03:11:42.202Z,2.30
2018-01-05T03:14:09.911Z,2.30
2018-01-05T03:16:37.546Z,2.57
2018-01-05T03:19:05.291Z,2.00
2018-01-05T03:21:32.998Z,2.50
2018-01-05T03:24:00.304Z,2.77
2018-01-05T03:26:27.965Z,2.50
2018-01-05T03:28:55.598Z,2.10
2018-01-05T03:31:23.302Z,2.30
2018-01-05T03:33:50.613Z,1.77
2018-01-05T03:36:17.939Z,2.03
2018-01-05T03:38:45.569Z,1.90
2018-01-05T03:41:12.924Z,2.03
2018-01-05T03:43:40.291Z,1.90
2018-01-05T03:46:07.592Z,1.73
2018-01-05T03:48:35.277Z,1.80
2018-01-05T03:51:03.023Z,1.80
2018-01-05T03:53:30.712Z,1.80
2018-01-05T03:55:58.014Z,1.97
2018-01-05T03:58:25.350Z,1.80
2018-01-05T04:00:52.982Z,1.70
2018-01-05T04:03:20.299Z,1.63
2018-01-05T04:05:47.654Z,1.87
2018-01-05T04:08:14.958Z,2.00
2018-01-05T04:10:42.298Z,2.30
2018-01-05T04:13:10.095Z,1.80
2018-01-05T04:15:38.331Z,2.13
2018-01-05T04:18:05.994Z,2.20
2018-01-05T04:20:33.709Z,1.87
2018-01-05T04:23:01.327Z,1.90
2018-01-05T04:25:28.683Z,1.77
2018-01-05T04:27:55.987Z,2.20
2018-01-05T04:30:23.314Z,1.77
2018-01-05T04:32:50.978Z,1.73
2018-01-05T04:35:18.611Z,1.70
2018-01-05T04:37:45.938Z,1.90
2018-01-05T04:40:13.538Z,1.60
2018-01-05T04:42:40.840Z,2.00
2018-01-05T04:45:08.150Z,1.73
2018-01-05T04:47:35.818Z,1.80
2018-01-05T04:50:03.124Z,1.97
2018-01-05T04:52:30.835Z,2.03
2018-01-05T04:54:58.474Z,1.80
2018-01-05T04:57:26.230Z,1.73
2018-01-05T04:59:53.923Z,2.27
2018-01-05T05:02:21.566Z,2.13
2018-01-05T05:04:49.314Z,1.80
2018-01-05T05:07:16.915Z,2.43
2018-01-05T05:09:44.530Z,2.40
2018-01-05T05:12:12.254Z,2.60
2018-01-05T05:14:39.583Z,2.33
2018-01-05T05:17:07.219Z,2.40
2018-01-05T05:19:34.695Z,2.30
2018-01-05T05:22:01.989Z,2.73
2018-01-05T05:24:29.306Z,2.93
2018-01-05T05:26:56.970Z,2.60
2018-01-05T05:29:24.902Z,3.17
2018-01-05T05:31:52.341Z,3.20
2018-01-05T05:34:20.226Z,3.37
2018-01-05T05:36:48.035Z,3.30
2018-01-05T05:39:15.717Z,3.00
2018-01-05T05:41:43.069Z,3.37
2018-01-05T05:44:10.891Z,3.50
2018-01-05T05:46:38.231Z,3.10
2018-01-05T05:49:06.102Z,3.63
2018-01-05T05:51:33.671Z,3.53
2018-01-05T05:54:01.027Z,3.93
2018-01-05T05:56:28.346Z,3.30
2018-01-05T05:58:56.235Z,4.37
2018-01-05T06:01:24.113Z,3.60
2018-01-05T06:03:51.962Z,3.93
2018-01-05T06:06:19.331Z,4.03
2018-01-05T06:08:47.181Z,4.00
2018-01-05T06:11:15.050Z,4.53
2018-01-05T06:13:42.737Z,4.50
2018-01-05T06:16:10.106Z,5.33
2018-01-05T06:18:37.742Z,6.37
2018-01-05T06:21:05.050Z,6.10
2018-01-05T06:23:32.422Z,4.80
2018-01-05T06:26:00.107Z,5.37
2018-01-05T06:28:27.441Z,5.50
2018-01-05T06:30:54.993Z,5.90
2018-01-05T06:33:22.557Z,4.97
2018-01-05T06:35:50.335Z,6.37
2018-01-05T06:38:18.036Z,5.80
2018-01-05T06:40:45.666Z,6.20
2018-01-05T06:43:13.015Z,4.57
2018-01-05T06:45:40.696Z,5.30
2018-01-05T06:48:08.451Z,5.03
2018-01-05T06:50:36.168Z,6.27
2018-01-05T06:53:03.480Z,5.33
2018-01-05T06:55:30.795Z,4.90
2018-01-05T06:57:58.256Z,4.90
2018-01-05T07:00:25.927Z,4.17
2018-01-05T07:02:53.272Z,5.50
2018-01-05T07:05:21.274Z,5.33
2018-01-05T07:07:48.586Z,4.90
2018-01-05T07:10:15.934Z,5.47
2018-01-05T07:12:43.267Z,5.60
2018-01-05T07:15:10.894Z,4.70
2018-01-05T07:17:38.246Z,5.30
2018-01-05T07:20:05.562Z,4.87
2018-01-05T07:22:33.266Z,4.00
2018-01-05T07:25:00.626Z,4.17
2018-01-05T07:27:27.940Z,4.00
2018-01-05T07:29:55.367Z,3.70
2018-01-05T07:32:22.825Z,3.37
2018-01-05T07:34:50.402Z,4.20
2018-01-05T07:37:17.703Z,3.67
2018-01-05T07:39:45.038Z,3.77
2018-01-05T07:42:17.909Z,3.03
2018-01-05T07:44:48.674Z,3.30
2018-01-05T07:47:15.983Z,3.63
2018-01-05T07:49:43.350Z,3.37
2018-01-05T07:52:10.699Z,3.50
2018-01-05T07:54:38.105Z,4.00
2018-01-05T07:57:05.531Z,3.60
2018-01-05T07:59:32.934Z,4.30
2018-01-05T08:02:00.256Z,3.30
2018-01-05T08:04:27.628Z,3.50
2018-01-05T08:06:54.935Z,3.70
2018-01-05T08:09:22.286Z,3.27
2018-01-05T08:11:49.593Z,2.67
2018-01-05T08:14:16.942Z,3.70
2018-01-05T08:16:44.257Z,2.80
2018-01-05T08:19:11.559Z,3.33
2018-01-05T08:21:38.888Z,2.93
2018-01-05T08:24:06.458Z,2.70
2018-01-05T08:26:33.771Z,2.83
2018-01-05T08:29:01.094Z,3.00
2018-01-05T08:31:28.442Z,3.10
2018-01-05T08:33:55.791Z,2.80
2018-01-05T08:36:23.145Z,3.03
2018-01-05T08:38:50.499Z,2.90
2018-01-05T08:41:17.817Z,3.27
2018-01-05T08:43:45.140Z,2.67
2018-01-05T08:46:12.463Z,2.90
2018-01-05T08:48:39.767Z,2.90
2018-01-05T08:51:07.102Z,2.50
2018-01-05T08:53:34.458Z,3.00
2018-01-05T08:56:01.777Z,2.70
2018-01-05T08:58:29.078Z,2.30
2018-01-05T09:00:56.426Z,2.90
2018-01-05T09:03:23.726Z,2.47
2018-01-05T09:05:51.034Z,2.87
2018-01-05T09:08:18.391Z,3.00
2018-01-05T09:10:45.694Z,2.77
2018-01-05T09:13:12.997Z,2.47
2018-01-05T09:15:40.338Z,2.20
2018-01-05T09:18:07.659Z,2.77
2018-01-05T09:20:35.005Z,2.67
2018-01-05T09:23:02.354Z,2.40
2018-01-05T09:25:29.662Z,3.17
2018-01-05T09:27:56.977Z,2.90
2018-01-05T09:30:24.318Z,2.50
2018-01-05T09:32:51.651Z,3.10
2018-01-05T09:35:19.053Z,2.83
2018-01-05T09:37:46.574Z,3.17
2018-01-05T09:40:13.894Z,3.40
2018-01-05T09:42:41.249Z,2.37
2018-01-05T09:45:08.618Z,2.47
2018-01-05T09:47:35.934Z,2.63
2018-01-05T09:50:03.262Z,2.57
2018-01-05T09:52:30.578Z,2.90
2018-01-05T09:54:57.954Z,2.57
2018-01-05T09:57:25.390Z,2.40
2018-01-05T09:59:52.714Z,2.67
2018-01-05T10:02:20.049Z,3.07
2018-01-05T10:04:53.071Z,1.77
2018-01-05T10:07:20.420Z,2.33
2018-01-05T10:09:47.735Z,2.63
2018-01-05T10:12:15.082Z,2.60
2018-01-05T10:14:42.430Z,2.30
2018-01-05T10:17:09.734Z,2.33
2018-01-05T10:19:37.038Z,2.47
2018-01-05T10:22:04.378Z,2.97
2018-01-05T10:24:31.696Z,2.43
2018-01-05T10:26:59.039Z,2.53
2018-01-05T10:29:26.377Z,2.50
2018-01-05T10:31:53.714Z,2.23
2018-01-05T10:34:21.022Z,2.83
2018-01-05T10:36:48.378Z,3.27
2018-01-05T10:39:15.702Z,2.90
2018-01-05T10:41:43.090Z,2.80
2018-01-05T10:44:10.418Z,2.30
2018-01-05T10:46:37.726Z,2.50
2018-01-05T10:49:05.084Z,2.67
2018-01-05T10:51:32.395Z,2.33
2018-01-05T10:53:59.690Z,2.93
2018-01-05T10:56:27.030Z,2.20
2018-01-05T10:58:54.334Z,2.57
2018-01-05T11:01:21.651Z,2.20
2018-01-05T11:03:49.018Z,1.93
2018-01-05T11:06:16.319Z,3.10
2018-01-05T11:08:43.632Z,2.30
2018-01-05T11:11:10.974Z,2.40
2018-01-05T11:13:38.291Z,2.50
2018-01-05T11:16:05.604Z,2.00
2018-01-05T11:18:32.941Z,2.80
2018-01-05T11:21:00.253Z,3.00
2018-01-05T11:23:27.541Z,2.53
2018-01-05T11:25:54.902Z,3.10
2018-01-05T11:28:22.234Z,2.10
2018-01-05T11:30:49.558Z,3.00
2018-01-05T11:33:16.866Z,2.70
2018-01-05T11:35:44.202Z,2.40
2018-01-05T11:38:11.547Z,3.00
2018-01-05T11:40:38.862Z,3.03
2018-01-05T11:43:06.191Z,4.17
2018-01-05T11:45:33.536Z,3.70
2018-01-05T11:48:00.842Z,3.53
2018-01-05T11:50:28.149Z,2.63
2018-01-05T11:52:55.565Z,3.73
2018-01-05T11:55:22.898Z,3.07
2018-01-05T11:57:50.225Z,2.90
2018-01-05T12:00:17.566Z,2.43
2018-01-05T12:02:44.871Z,2.80
2018-01-05T12:05:12.182Z,3.67
2018-01-05T12:07:39.507Z,2.47
2018-01-05T12:10:06.860Z,2.63
2018-01-05T12:12:34.202Z,3.03
2018-01-05T12:15:01.521Z,2.77
2018-01-05T12:17:28.837Z,2.73
2018-01-05T12:19:56.223Z,3.00
2018-01-05T12:22:23.530Z,2.80
2018-01-05T12:24:50.850Z,3.47
2018-01-05T12:27:18.198Z,3.37
2018-01-05T12:29:45.516Z,3.37
2018-01-05T12:32:12.830Z,3.93
2018-01-05T12:34:40.198Z,3.50
2018-01-05T12:37:07.509Z,3.60
2018-01-05T12:39:34.833Z,3.20
2018-01-05T12:42:02.181Z,3.57
2018-01-05T12:44:29.535Z,2.80
2018-01-05T12:46:56.867Z,2.90
2018-01-05T12:49:24.238Z,3.23
2018-01-05T12:51:52.094Z,2.90
2018-01-05T12:54:19.446Z,2.80
2018-01-05T12:56:46.758Z,2.73
2018-01-05T12:59:14.058Z,2.23
2018-01-05T13:01:41.387Z,2.03
2018-01-05T13:04:08.694Z,2.30
2018-01-05T13:06:36.044Z,2.47
2018-01-05T13:09:03.359Z,1.90
2018-01-05T13:11:30.663Z,2.10
2018-01-05T13:13:58.010Z,2.90
2018-01-05T13:16:25.394Z,2.77
2018-01-05T13:18:52.707Z,2.47
2018-01-05T13:21:20.055Z,1.60
2018-01-05T13:23:47.358Z,1.60
2018-01-05T13:26:14.667Z,1.50
2018-01-05T13:28:41.998Z,1.90
2018-01-05T13:31:09.314Z,1.80
2018-01-05T13:33:36.646Z,2.10
2018-01-05T13:36:04.002Z,2.07
2018-01-05T13:38:31.301Z,1.97
2018-01-05T13:40:58.681Z,2.10
2018-01-05T13:43:26.010Z,1.87
2018-01-05T13:45:53.304Z,1.83
2018-01-05T13:48:20.634Z,1.70
2018-01-05T13:50:48.075Z,1.90
2018-01-05T13:53:15.407Z,1.90
2018-01-05T13:55:42.735Z,2.07
2018-01-05T13:58:10.058Z,1.90
2018-01-05T14:00:37.387Z,1.80
2018-01-05T14:03:04.723Z,2.10
2018-01-05T14:05:32.043Z,1.93
2018-01-05T14:07:59.382Z,1.90
2018-01-05T14:10:26.705Z,2.27
2018-01-05T14:12:54.023Z,1.87
2018-01-05T14:15:21.393Z,1.90
2018-01-05T14:17:48.771Z,2.00
2018-01-05T14:20:16.061Z,2.00
2018-01-05T14:22:43.434Z,2.17
2018-01-05T14:25:10.714Z,2.07
2018-01-05T14:27:38.076Z,1.80
2018-01-05T14:30:05.378Z,1.73
2018-01-05T14:32:32.686Z,1.90
2018-01-05T14:35:00.096Z,1.90
2018-01-05T14:37:27.399Z,1.87
2018-01-05T14:39:54.730Z,2.70
2018-01-05T14:42:22.027Z,2.27
2018-01-05T14:44:49.327Z,1.90
2018-01-05T14:47:16.701Z,1.80
2018-01-05T14:49:44.021Z,2.40
2018-01-05T14:52:11.330Z,2.10
2018-01-05T14:54:38.678Z,1.90
2018-01-05T14:57:06.054Z,1.93
2018-01-05T14:59:33.371Z,2.03
2018-01-05T15:02:00.710Z,2.57
2018-01-05T15:04:28.012Z,2.27
2018-01-05T15:06:55.305Z,2.20
2018-01-05T15:09:22.652Z,1.93
2018-01-05T15:11:49.958Z,2.23
2018-01-05T15:14:17.302Z,2.13
2018-01-05T15:16:44.651Z,2.33
2018-01-05T15:19:11.962Z,2.40
2018-01-05T15:21:39.306Z,2.60
2018-01-05T15:24:06.697Z,2.03
2018-01-05T15:26:33.998Z,2.73
2018-01-05T15:29:01.346Z,2.50
2018-01-05T15:31:28.673Z,2.23
2018-01-05T15:33:55.993Z,2.70
2018-01-05T15:36:23.344Z,3.97
2018-01-05T15:38:50.642Z,3.27
2018-01-05T15:41:17.953Z,2.97
2018-01-05T15:43:45.279Z,2.90
2018-01-05T15:46:12.596Z,3.50
2018-01-05T15:48:39.943Z,3.07
2018-01-05T15:51:07.271Z,2.80
2018-01-05T15:53:34.574Z,2.90
2018-01-05T15:56:01.902Z,2.60
2018-01-05T15:58:30.204Z,2.67
2018-01-05T16:00:57.591Z,3.37
2018-01-05T16:03:24.900Z,3.13
2018-01-05T16:05:52.198Z,3.03
2018-01-05T16:08:19.544Z,2.60
2018-01-05T16:10:46.869Z,2.50
2018-01-05T16:13:14.187Z,2.70
2018-01-05T16:15:41.528Z,3.00
2018-01-05T16:18:08.837Z,3.00
2018-01-05T16:20:36.143Z,3.30
2018-01-05T16:23:03.495Z,3.30
2018-01-05T16:25:30.814Z,3.40
2018-01-05T16:27:58.251Z,3.00
2018-01-05T16:30:25.602Z,3.40
2018-01-05T16:32:52.910Z,4.00
2018-01-05T16:35:20.218Z,3.23
2018-01-05T16:37:47.562Z,3.60
2018-01-05T16:40:14.879Z,4.20
2018-01-05T16:42:42.183Z,3.07
2018-01-05T16:45:09.532Z,3.13
2018-01-05T16:47:36.855Z,3.10
2018-01-05T16:50:04.208Z,3.50
2018-01-05T16:52:31.558Z,2.93
2018-01-05T16:54:58.861Z,3.33
2018-01-05T16:57:26.166Z,3.20
2018-01-05T16:59:53.518Z,3.30
2018-01-05T17:02:20.838Z,3.03
2018-01-05T17:04:48.154Z,2.70
2018-01-05T17:07:15.524Z,2.93
2018-01-05T17:09:42.822Z,2.90
2018-01-05T17:12:10.121Z,3.20
2018-01-05T17:14:37.462Z,3.10
2018-01-05T17:17:04.791Z,3.13
2018-01-05T17:19:32.100Z,2.97
2018-01-05T17:21:59.439Z,3.20
2018-01-05T17:24:26.760Z,3.03
2018-01-05T17:26:54.068Z,3.50
2018-01-05T17:29:21.414Z,3.93
2018-01-05T17:31:48.730Z,3.20
2018-01-05T17:34:17.659Z,3.20
2018-01-05T17:36:44.981Z,3.70
2018-01-05T17:39:12.287Z,3.97
2018-01-05T17:41:39.646Z,4.53
2018-01-05T17:44:06.972Z,3.47
2018-01-05T17:46:34.314Z,3.67
2018-01-05T17:49:01.654Z,3.47
2018-01-05T17:51:29.002Z,4.10
2018-01-05T17:53:56.327Z,4.10
2018-01-05T17:56:23.703Z,3.77
2018-01-05T17:58:51.004Z,3.80
2018-01-05T18:01:18.310Z,3.77
2018-01-05T18:03:46.744Z,4.10
2018-01-05T18:06:14.042Z,4.07
2018-01-05T18:08:41.382Z,4.23
2018-01-05T18:11:08.718Z,4.10
2018-01-05T18:13:36.055Z,4.30
2018-01-05T18:16:03.378Z,4.40
2018-01-05T18:18:30.745Z,4.53
2018-01-05T18:20:58.111Z,3.77
2018-01-05T18:23:25.421Z,4.23
2018-01-05T18:25:52.738Z,4.20
2018-01-05T18:28:20.082Z,3.90
2018-01-05T18:30:47.390Z,4.37
2018-01-05T18:33:14.746Z,4.00
2018-01-05T18:35:42.083Z,3.67
2018-01-05T18:38:09.382Z,4.63
2018-01-05T18:40:36.765Z,4.07
2018-01-05T18:43:04.070Z,4.40
2018-01-05T18:45:31.370Z,4.43
2018-01-05T18:47:58.734Z,3.80
2018-01-05T18:50:26.046Z,5.10
2018-01-05T18:52:53.353Z,4.53
2018-01-05T18:55:20.691Z,4.67
2018-01-05T18:57:48.042Z,5.13
2018-01-05T19:00:15.355Z,4.23
2018-01-05T19:02:42.666Z,5.00
2018-01-05T19:05:10.076Z,4.30
2018-01-05T19:07:37.379Z,5.80
2018-01-05T19:10:04.694Z,6.73
2018-01-05T19:12:32.075Z,6.90
2018-01-05T19:14:59.382Z,6.43
2018-01-05T19:17:26.695Z,6.37
2018-01-05T19:19:54.134Z,6.33
2018-01-05T19:22:21.455Z,8.20
2018-01-05T19:24:48.799Z,6.30
2018-01-05T19:27:16.101Z,6.13
2018-01-05T19:29:43.458Z,7.67
2018-01-05T19:32:10.822Z,7.53
2018-01-05T19:34:38.136Z,9.67
2018-01-05T19:37:05.938Z,11.60
2018-01-05T19:39:33.368Z,9.80
2018-01-05T19:42:01.220Z,8.83
2018-01-05T19:44:28.780Z,7.97
2018-01-05T19:46:56.158Z,8.90
2018-01-05T19:49:23.472Z,9.37
2018-01-05T19:51:50.883Z,9.73
2018-01-05T19:54:18.529Z,10.50
2018-01-05T19:56:45.898Z,11.40
2018-01-05T19:59:13.420Z,11.83
2018-01-05T20:01:40.883Z,11.93
2018-01-05T20:04:08.199Z,19.33
2018-01-05T20:06:35.563Z,26.60
2018-01-05T20:09:02.977Z,26.57
2018-01-05T20:11:30.438Z,19.03
2018-01-05T20:13:57.834Z,15.17
2018-01-05T20:16:25.350Z,17.40
2018-01-05T20:19:02.911Z,20.67
2018-01-05T20:21:30.919Z,26.27
2018-01-05T20:23:58.274Z,20.20
2018-01-05T20:26:25.646Z,11.20
2018-01-05T20:28:52.974Z,10.40
2018-01-05T20:31:20.493Z,10.07
2018-01-05T20:33:47.839Z,10.00
2018-01-05T20:36:15.177Z,10.40
2018-01-05T20:38:42.527Z,9.10
2018-01-05T20:41:10.091Z,8.33
2018-01-05T20:43:37.676Z,7.90
2018-01-05T20:46:05.101Z,7.80
2018-01-05T20:48:32.568Z,10.70
2018-01-05T20:50:59.944Z,9.23
2018-01-05T20:53:27.361Z,10.20
2018-01-05T20:55:54.763Z,9.20
2018-01-05T20:58:22.418Z,9.67
2018-01-05T21:00:50.285Z,8.70
2018-01-05T21:03:17.683Z,9.50
2018-01-05T21:05:45.038Z,11.70
2018-01-05T21:08:12.444Z,11.73
2018-01-05T21:10:39.806Z,12.30
2018-01-05T21:13:07.127Z,12.43
2018-01-05T21:15:34.503Z,10.80
2018-01-05T21:18:01.882Z,10.90
2018-01-05T21:20:29.266Z,11.40
2018-01-05T21:22:56.613Z,10.27
2018-01-05T21:25:23.922Z,9.90
2018-01-05T21:27:51.231Z,9.93
2018-01-05T21:30:18.595Z,9.87
2018-01-05T21:32:45.938Z,10.60
2018-01-05T21:35:13.250Z,9.80
2018-01-05T21:37:40.565Z,10.20
2018-01-05T21:40:07.928Z,11.60
2018-01-05T21:42:35.251Z,13.63
2018-01-05T21:45:02.564Z,12.03
2018-01-05T21:47:30.017Z,10.80
2018-01-05T21:49:57.367Z,9.70
2018-01-05T21:52:24.707Z,8.77
2018-01-05T21:54:52.065Z,8.57
2018-01-05T21:57:19.380Z,8.77
2018-01-05T21:59:46.692Z,9.00
2018-01-05T22:02:14.034Z,7.50
2018-01-05T22:04:41.368Z,8.03
2018-01-05T22:07:08.786Z,7.47
2018-01-05T22:09:36.199Z,7.80
2018-01-05T22:12:03.518Z,7.73
2018-01-05T22:14:30.882Z,7.83
2018-01-05T22:16:58.190Z,8.33
2018-01-05T22:19:25.494Z,8.40
2018-01-05T22:21:53.015Z,8.27
2018-01-05T22:24:20.327Z,9.20
2018-01-05T22:26:47.633Z,9.00
2018-01-05T22:29:14.977Z,8.23
2018-01-05T22:31:42.306Z,7.03
2018-01-05T22:34:09.642Z,8.70
2018-01-05T22:36:36.986Z,10.40
2018-01-05T22:39:04.298Z,9.63
2018-01-05T22:41:31.622Z,10.43
2018-01-05T22:43:58.979Z,9.90
2018-01-05T22:46:26.292Z,9.40
2018-01-05T22:48:53.785Z,8.70
2018-01-05T22:51:21.134Z,8.60
2018-01-05T22:53:48.448Z,8.80
2018-01-05T22:56:15.768Z,8.90
2018-01-05T22:58:43.163Z,9.97
2018-01-05T23:01:10.479Z,14.30
2018-01-05T23:03:37.946Z,9.30
2018-01-05T23:06:05.276Z,8.63
2018-01-05T23:08:32.631Z,8.67
2018-01-05T23:10:59.971Z,9.97
2018-01-05T23:13:27.303Z,8.90
2018-01-05T23:15:54.650Z,7.60
2018-01-05T23:18:21.998Z,7.97
2018-01-05T23:20:49.318Z,7.90
2018-01-05T23:23:16.662Z,8.00
2018-01-05T23:25:43.986Z,7.97
2018-01-05T23:28:11.297Z,9.13
2018-01-05T23:30:38.630Z,8.70
2018-01-05T23:33:05.948Z,8.27
2018-01-05T23:35:33.323Z,8.07
2018-01-05T23:38:00.630Z,8.50
2018-01-05T23:40:28.004Z,8.13
2018-01-05T23:42:55.332Z,8.43
2018-01-05T23:45:22.635Z,8.93
2018-01-05T23:47:49.991Z,9.20
2018-01-05T23:50:17.298Z,8.70
2018-01-05T23:52:44.610Z,8.63
2018-01-05T23:55:11.963Z,7.83
2018-01-05T23:57:39.274Z,8.70
